sensor_id;sensor_type;location;lat;lon;timestamp;temperature;humidity
20839;DHT22;10580;51.092;6.828;2023-07-29T02:55:55;18.60;99.90
20839;DHT22;10580;51.092;6.828;2023-07-29T02:58:21;18.60;99.90
20839;DHT22;10580;51.092;6.828;2023-07-29T03:00:46;18.60;99.90
20839;DHT22;10580;51.092;6.828;2023-07-29T03:03:14;18.60;99.90
20839;DHT22;10580;51.092;6.828;2023-07-29T03:05:39;18.60;99.90
20839;DHT22;10580;51.092;6.828;2023-07-29T03:08:05;18.60;99.90
20839;DHT22;10580;51.092;6.828;2023-07-29T03:10:31;18.60;99.90
20839;DHT22;10580;51.092;6.828;2023-07-29T03:12:56;18.60;99.90
20839;DHT22;10580;51.092;6.828;2023-07-29T03:15:25;18.60;99.90
20839;DHT22;10580;51.092;6.828;2023-07-29T03:17:52;18.60;99.90
20839;DHT22;10580;51.092;6.828;2023-07-29T03:20:18;18.60;99.90
20839;DHT22;10580;51.092;6.828;2023-07-29T03:22:44;18.60;99.90
20839;DHT22;10580;51.092;6.828;2023-07-29T03:25:10;18.60;99.90
20839;DHT22;10580;51.092;6.828;2023-07-29T03:27:36;18.60;99.90
20839;DHT22;10580;51.092;6.828;2023-07-29T03:30:03;18.50;99.90
20839;DHT22;10580;51.092;6.828;2023-07-29T03:32:29;18.50;99.90
20839;DHT22;10580;51.092;6.828;2023-07-29T03:34:54;18.50;99.90
20839;DHT22;10580;51.092;6.828;2023-07-29T03:37:20;18.50;99.90
20839;DHT22;10580;51.092;6.828;2023-07-29T03:39:46;18.50;99.90
20839;DHT22;10580;51.092;6.828;2023-07-29T03:42:12;18.50;99.90
20839;DHT22;10580;51.092;6.828;2023-07-29T03:44:38;18.50;99.90
20839;DHT22;10580;51.092;6.828;2023-07-29T03:47:05;18.50;99.90
20839;DHT22;10580;51.092;6.828;2023-07-29T03:49:31;18.50;99.90
20839;DHT22;10580;51.092;6.828;2023-07-29T03:51:56;18.50;99.90
20839;DHT22;10580;51.092;6.828;2023-07-29T03:54:22;18.50;99.90
20839;DHT22;10580;51.092;6.828;2023-07-29T03:56:47;18.50;99.90
20839;DHT22;10580;51.092;6.828;2023-07-29T03:59:13;18.50;99.90
20839;DHT22;10580;51.092;6.828;2023-07-29T04:01:38;18.50;99.90
20839;DHT22;10580;51.092;6.828;2023-07-29T04:04:04;18.50;99.90
20839;DHT22;10580;51.092;6.828;2023-07-29T04:06:30;18.50;99.90
20839;DHT22;10580;51.092;6.828;2023-07-29T04:08:56;18.50;99.90
20839;DHT22;10580;51.092;6.828;2023-07-29T04:11:22;18.50;99.90
20839;DHT22;10580;51.092;6.828;2023-07-29T04:13:48;18.50;99.90
20839;DHT22;10580;51.092;6.828;2023-07-29T04:16:13;18.50;99.90
20839;DHT22;10580;51.092;6.828;2023-07-29T04:18:39;18.50;99.90
20839;DHT22;10580;51.092;6.828;2023-07-29T04:21:05;18.40;99.90
20839;DHT22;10580;51.092;6.828;2023-07-29T04:23:30;18.40;99.90
20839;DHT22;10580;51.092;6.828;2023-07-29T04:25:56;18.50;99.90
20839;DHT22;10580;51.092;6.828;2023-07-29T04:28:21;18.40;99.90
20839;DHT22;10580;51.092;6.828;2023-07-29T04:30:47;18.40;99.90
20839;DHT22;10580;51.092;6.828;2023-07-29T04:33:12;18.40;99.90
20839;DHT22;10580;51.092;6.828;2023-07-29T04:35:38;18.40;99.90
20839;DHT22;10580;51.092;6.828;2023-07-29T04:38:04;18.40;99.90
20839;DHT22;10580;51.092;6.828;2023-07-29T04:40:32;18.40;99.90
20839;DHT22;10580;51.092;6.828;2023-07-29T04:42:57;18.40;99.90
20839;DHT22;10580;51.092;6.828;2023-07-29T04:45:28;18.40;99.90
20839;DHT22;10580;51.092;6.828;2023-07-29T04:47:55;18.40;99.90
20839;DHT22;10580;51.092;6.828;2023-07-29T04:50:20;18.40;99.90
20839;DHT22;10580;51.092;6.828;2023-07-29T04:52:46;18.40;99.90
20839;DHT22;10580;51.092;6.828;2023-07-29T04:55:11;18.40;99.90
20839;DHT22;10580;51.092;6.828;2023-07-29T04:57:37;18.40;99.90
20839;DHT22;10580;51.092;6.828;2023-07-29T05:00:03;18.40;99.90
20839;DHT22;10580;51.092;6.828;2023-07-29T05:02:29;18.50;99.90
20839;DHT22;10580;51.092;6.828;2023-07-29T05:04:54;18.50;99.90
20839;DHT22;10580;51.092;6.828;2023-07-29T05:07:20;18.50;99.90
20839;DHT22;10580;51.092;6.828;2023-07-29T05:09:47;18.50;99.90
20839;DHT22;10580;51.092;6.828;2023-07-29T05:12:13;18.50;99.90
20839;DHT22;10580;51.092;6.828;2023-07-29T05:14:38;18.50;99.90
20839;DHT22;10580;51.092;6.828;2023-07-29T05:17:04;18.50;99.90
20839;DHT22;10580;51.092;6.828;2023-07-29T05:19:30;18.60;99.90
20839;DHT22;10580;51.092;6.828;2023-07-29T05:21:56;18.60;99.90
20839;DHT22;10580;51.092;6.828;2023-07-29T05:24:22;18.80;99.90
20839;DHT22;10580;51.092;6.828;2023-07-29T05:26:48;18.70;99.90
20839;DHT22;10580;51.092;6.828;2023-07-29T05:29:14;18.70;99.90
20839;DHT22;10580;51.092;6.828;2023-07-29T05:31:40;18.70;99.90
20839;DHT22;10580;51.092;6.828;2023-07-29T05:34:05;18.70;99.90
20839;DHT22;10580;51.092;6.828;2023-07-29T05:36:31;18.80;99.90
20839;DHT22;10580;51.092;6.828;2023-07-29T05:38:56;18.70;99.90
20839;DHT22;10580;51.092;6.828;2023-07-29T05:41:22;18.70;99.90
20839;DHT22;10580;51.092;6.828;2023-07-29T05:43:48;18.70;99.90
20839;DHT22;10580;51.092;6.828;2023-07-29T05:46:13;18.70;99.90
20839;DHT22;10580;51.092;6.828;2023-07-29T05:48:39;18.60;99.90
20839;DHT22;10580;51.092;6.828;2023-07-29T05:51:04;18.60;99.90
20839;DHT22;10580;51.092;6.828;2023-07-29T05:53:33;18.60;99.90
20839;DHT22;10580;51.092;6.828;2023-07-29T05:55:58;18.60;99.90
20839;DHT22;10580;51.092;6.828;2023-07-29T05:58:24;18.70;99.90
20839;DHT22;10580;51.092;6.828;2023-07-29T06:00:49;18.70;99.90
20839;DHT22;10580;51.092;6.828;2023-07-29T06:03:15;18.70;99.90
20839;DHT22;10580;51.092;6.828;2023-07-29T06:05:41;18.70;99.90
20839;DHT22;10580;51.092;6.828;2023-07-29T06:08:06;18.70;99.90
20839;DHT22;10580;51.092;6.828;2023-07-29T06:10:34;18.70;99.90
20839;DHT22;10580;51.092;6.828;2023-07-29T06:12:59;18.70;99.90
20839;DHT22;10580;51.092;6.828;2023-07-29T06:15:25;18.70;99.90
20839;DHT22;10580;51.092;6.828;2023-07-29T06:17:50;18.70;99.90
20839;DHT22;10580;51.092;6.828;2023-07-29T06:20:16;18.70;99.90
20839;DHT22;10580;51.092;6.828;2023-07-29T06:22:42;18.60;99.90
20839;DHT22;10580;51.092;6.828;2023-07-29T06:25:08;18.70;99.90
20839;DHT22;10580;51.092;6.828;2023-07-29T06:27:34;18.60;99.90
20839;DHT22;10580;51.092;6.828;2023-07-29T06:29:59;18.50;99.90
20839;DHT22;10580;51.092;6.828;2023-07-29T06:32:25;18.50;99.90
20839;DHT22;10580;51.092;6.828;2023-07-29T06:34:58;18.40;99.90
20839;DHT22;10580;51.092;6.828;2023-07-29T06:37:23;18.40;99.90
20839;DHT22;10580;51.092;6.828;2023-07-29T06:39:49;18.40;99.90
20839;DHT22;10580;51.092;6.828;2023-07-29T06:42:15;18.40;99.90
20839;DHT22;10580;51.092;6.828;2023-07-29T06:44:40;18.40;99.90
20839;DHT22;10580;51.092;6.828;2023-07-29T06:47:06;18.30;99.90
20839;DHT22;10580;51.092;6.828;2023-07-29T06:49:32;18.40;99.90
20839;DHT22;10580;51.092;6.828;2023-07-29T06:51:57;18.30;99.90
20839;DHT22;10580;51.092;6.828;2023-07-29T06:54:26;18.40;99.90
20839;DHT22;10580;51.092;6.828;2023-07-29T06:56:52;18.40;99.90
20839;DHT22;10580;51.092;6.828;2023-07-29T06:59:18;18.50;99.90
20839;DHT22;10580;51.092;6.828;2023-07-29T07:01:43;18.50;99.90
20839;DHT22;10580;51.092;6.828;2023-07-29T07:04:09;18.50;99.90
20839;DHT22;10580;51.092;6.828;2023-07-29T07:06:35;18.70;99.90
20839;DHT22;10580;51.092;6.828;2023-07-29T07:09:00;18.70;99.90
20839;DHT22;10580;51.092;6.828;2023-07-29T07:11:26;18.90;99.90
20839;DHT22;10580;51.092;6.828;2023-07-29T07:13:51;19.00;85.20
20839;DHT22;10580;51.092;6.828;2023-07-29T07:16:17;19.20;1.00
20839;DHT22;10580;51.092;6.828;2023-07-29T07:18:43;19.30;1.00
20839;DHT22;10580;51.092;6.828;2023-07-29T07:21:08;19.40;1.00
20839;DHT22;10580;51.092;6.828;2023-07-29T07:23:34;19.80;1.00
20839;DHT22;10580;51.092;6.828;2023-07-29T07:26:00;21.70;1.00
20839;DHT22;10580;51.092;6.828;2023-07-29T07:28:25;23.00;99.90
20839;DHT22;10580;51.092;6.828;2023-07-29T07:30:51;23.50;1.00
20839;DHT22;10580;51.092;6.828;2023-07-29T07:33:17;23.00;99.90
20839;DHT22;10580;51.092;6.828;2023-07-29T07:35:42;22.50;1.00
20839;DHT22;10580;51.092;6.828;2023-07-29T07:38:08;21.60;1.00
20839;DHT22;10580;51.092;6.828;2023-07-29T07:40:35;21.40;1.00
20839;DHT22;10580;51.092;6.828;2023-07-29T07:43:01;21.30;99.90
20839;DHT22;10580;51.092;6.828;2023-07-29T07:45:27;21.70;99.90
20839;DHT22;10580;51.092;6.828;2023-07-29T07:47:53;21.70;1.00
20839;DHT22;10580;51.092;6.828;2023-07-29T07:50:19;21.60;1.00
20839;DHT22;10580;51.092;6.828;2023-07-29T07:52:45;20.90;99.90
20839;DHT22;10580;51.092;6.828;2023-07-29T07:55:10;20.70;99.90
20839;DHT22;10580;51.092;6.828;2023-07-29T07:57:36;20.90;1.00
20839;DHT22;10580;51.092;6.828;2023-07-29T08:00:01;20.80;1.00
20839;DHT22;10580;51.092;6.828;2023-07-29T08:02:29;20.90;1.00
20839;DHT22;10580;51.092;6.828;2023-07-29T08:04:55;20.80;1.00
20839;DHT22;10580;51.092;6.828;2023-07-29T08:07:21;20.60;1.00
20839;DHT22;10580;51.092;6.828;2023-07-29T08:09:46;20.70;99.90
20839;DHT22;10580;51.092;6.828;2023-07-29T08:12:12;20.50;99.90
20839;DHT22;10580;51.092;6.828;2023-07-29T08:14:37;21.00;99.90
20839;DHT22;10580;51.092;6.828;2023-07-29T08:17:03;22.40;99.90
20839;DHT22;10580;51.092;6.828;2023-07-29T08:19:29;24.70;1.00
20839;DHT22;10580;51.092;6.828;2023-07-29T08:21:54;26.60;98.10
20839;DHT22;10580;51.092;6.828;2023-07-29T08:24:20;27.20;12.80
20839;DHT22;10580;51.092;6.828;2023-07-29T08:26:45;28.20;1.00
20839;DHT22;10580;51.092;6.828;2023-07-29T08:29:11;27.90;1.00
20839;DHT22;10580;51.092;6.828;2023-07-29T08:31:37;28.20;1.00
20839;DHT22;10580;51.092;6.828;2023-07-29T08:34:03;27.50;1.00
20839;DHT22;10580;51.092;6.828;2023-07-29T08:36:29;26.10;1.00
20839;DHT22;10580;51.092;6.828;2023-07-29T08:38:54;25.10;1.00
20839;DHT22;10580;51.092;6.828;2023-07-29T08:41:26;25.30;1.00
20839;DHT22;10580;51.092;6.828;2023-07-29T08:44:09;25.20;1.00
20839;DHT22;10580;51.092;6.828;2023-07-29T08:46:38;25.00;1.00
20839;DHT22;10580;51.092;6.828;2023-07-29T08:49:04;24.40;1.00
20839;DHT22;10580;51.092;6.828;2023-07-29T08:51:31;23.50;1.00
20839;DHT22;10580;51.092;6.828;2023-07-29T08:53:58;23.30;70.40
20839;DHT22;10580;51.092;6.828;2023-07-29T08:56:24;22.80;1.00
20839;DHT22;10580;51.092;6.828;2023-07-29T08:58:50;22.70;99.90
20839;DHT22;10580;51.092;6.828;2023-07-29T09:01:17;22.20;1.00
20839;DHT22;10580;51.092;6.828;2023-07-29T09:03:42;22.30;1.00
20839;DHT22;10580;51.092;6.828;2023-07-29T09:06:08;22.10;97.10
20839;DHT22;10580;51.092;6.828;2023-07-29T09:08:34;22.20;1.00
20839;DHT22;10580;51.092;6.828;2023-07-29T09:11:00;21.90;99.90
20839;DHT22;10580;51.092;6.828;2023-07-29T09:13:26;21.70;99.90
20839;DHT22;10580;51.092;6.828;2023-07-29T09:15:56;21.70;1.00
20839;DHT22;10580;51.092;6.828;2023-07-29T09:18:22;21.70;1.00
20839;DHT22;10580;51.092;6.828;2023-07-29T09:20:49;21.90;1.00
20839;DHT22;10580;51.092;6.828;2023-07-29T09:23:15;22.30;1.00
20839;DHT22;10580;51.092;6.828;2023-07-29T09:25:43;22.80;99.90
20839;DHT22;10580;51.092;6.828;2023-07-29T09:28:17;23.70;99.90
20839;DHT22;10580;51.092;6.828;2023-07-29T09:30:45;23.60;1.00
20839;DHT22;10580;51.092;6.828;2023-07-29T09:33:12;23.80;1.00
20839;DHT22;10580;51.092;6.828;2023-07-29T09:35:38;23.60;1.00
20839;DHT22;10580;51.092;6.828;2023-07-29T09:38:05;23.90;1.00
20839;DHT22;10580;51.092;6.828;2023-07-29T09:40:35;23.60;1.00
20839;DHT22;10580;51.092;6.828;2023-07-29T09:43:02;23.60;1.00
20839;DHT22;10580;51.092;6.828;2023-07-29T09:45:27;23.00;1.00
20839;DHT22;10580;51.092;6.828;2023-07-29T09:47:54;22.80;1.00
20839;DHT22;10580;51.092;6.828;2023-07-29T09:50:24;22.60;1.00
20839;DHT22;10580;51.092;6.828;2023-07-29T09:52:51;22.40;1.00
20839;DHT22;10580;51.092;6.828;2023-07-29T09:55:22;22.20;1.00
20839;DHT22;10580;51.092;6.828;2023-07-29T09:57:57;22.20;95.90
20839;DHT22;10580;51.092;6.828;2023-07-29T10:00:26;22.10;1.00
20839;DHT22;10580;51.092;6.828;2023-07-29T10:02:53;22.20;59.00
20839;DHT22;10580;51.092;6.828;2023-07-29T10:05:20;22.40;99.90
20839;DHT22;10580;51.092;6.828;2023-07-29T10:07:47;22.60;1.00
20839;DHT22;10580;51.092;6.828;2023-07-29T10:10:14;22.80;1.00
20839;DHT22;10580;51.092;6.828;2023-07-29T10:12:45;22.50;1.00
20839;DHT22;10580;51.092;6.828;2023-07-29T10:15:11;22.50;1.00
20839;DHT22;10580;51.092;6.828;2023-07-29T10:17:38;22.30;1.00
20839;DHT22;10580;51.092;6.828;2023-07-29T10:20:08;22.00;1.00
20839;DHT22;10580;51.092;6.828;2023-07-29T10:22:45;21.90;1.00
20839;DHT22;10580;51.092;6.828;2023-07-29T10:25:21;21.90;99.90
20839;DHT22;10580;51.092;6.828;2023-07-29T10:28:03;21.70;25.30
20839;DHT22;10580;51.092;6.828;2023-07-29T10:30:30;21.60;99.90
20839;DHT22;10580;51.092;6.828;2023-07-29T10:33:02;21.50;68.00
20839;DHT22;10580;51.092;6.828;2023-07-29T10:35:29;21.50;97.00
20839;DHT22;10580;51.092;6.828;2023-07-29T10:37:55;21.60;99.90
20839;DHT22;10580;51.092;6.828;2023-07-29T10:40:21;21.70;99.90
20839;DHT22;10580;51.092;6.828;2023-07-29T14:34:31;23.30;1.00
20839;DHT22;10580;51.092;6.828;2023-07-29T14:36:59;23.80;1.00
20839;DHT22;10580;51.092;6.828;2023-07-29T14:39:36;23.70;99.90
20839;DHT22;10580;51.092;6.828;2023-07-29T14:42:10;23.40;1.00
20839;DHT22;10580;51.092;6.828;2023-07-29T14:44:44;23.20;1.00
20839;DHT22;10580;51.092;6.828;2023-07-29T14:47:10;23.10;99.90
20839;DHT22;10580;51.092;6.828;2023-07-29T14:49:35;23.20;99.90
20839;DHT22;10580;51.092;6.828;2023-07-29T14:52:01;23.00;1.00
20839;DHT22;10580;51.092;6.828;2023-07-29T14:54:29;22.90;1.00
20839;DHT22;10580;51.092;6.828;2023-07-29T14:56:55;23.10;1.00
20839;DHT22;10580;51.092;6.828;2023-07-29T14:59:20;23.10;1.00
20839;DHT22;10580;51.092;6.828;2023-07-29T15:01:46;23.20;1.00
20839;DHT22;10580;51.092;6.828;2023-07-29T15:04:14;23.00;1.00
20839;DHT22;10580;51.092;6.828;2023-07-29T15:06:41;23.00;1.00
20839;DHT22;10580;51.092;6.828;2023-07-29T15:09:07;23.00;99.90
20839;DHT22;10580;51.092;6.828;2023-07-29T15:11:33;22.80;1.00
20839;DHT22;10580;51.092;6.828;2023-07-29T15:14:14;22.80;1.00
20839;DHT22;10580;51.092;6.828;2023-07-29T15:16:41;22.90;1.00
20839;DHT22;10580;51.092;6.828;2023-07-29T15:19:09;22.50;1.00
20839;DHT22;10580;51.092;6.828;2023-07-29T15:21:41;22.50;99.90
20839;DHT22;10580;51.092;6.828;2023-07-29T15:27:04;22.30;1.00
20839;DHT22;10580;51.092;6.828;2023-07-29T15:29:30;22.20;99.90
20839;DHT22;10580;51.092;6.828;2023-07-29T15:32:09;22.30;99.90
20839;DHT22;10580;51.092;6.828;2023-07-29T15:34:35;22.40;1.00
20839;DHT22;10580;51.092;6.828;2023-07-29T15:37:20;22.40;1.00
20839;DHT22;10580;51.092;6.828;2023-07-29T15:39:52;22.90;99.90
20839;DHT22;10580;51.092;6.828;2023-07-29T15:42:18;23.10;99.90
20839;DHT22;10580;51.092;6.828;2023-07-29T15:47:31;23.20;99.90
20839;DHT22;10580;51.092;6.828;2023-07-29T15:49:57;23.20;1.00
20839;DHT22;10580;51.092;6.828;2023-07-29T15:52:33;23.40;7.70
20839;DHT22;10580;51.092;6.828;2023-07-29T15:54:58;23.40;1.00
20839;DHT22;10580;51.092;6.828;2023-07-29T15:57:36;23.20;1.00
20839;DHT22;10580;51.092;6.828;2023-07-29T16:00:14;23.40;1.00
20839;DHT22;10580;51.092;6.828;2023-07-29T16:02:46;23.00;99.90
20839;DHT22;10580;51.092;6.828;2023-07-29T16:05:14;23.10;1.00
20839;DHT22;10580;51.092;6.828;2023-07-29T16:14:06;23.70;99.90
20839;DHT22;10580;51.092;6.828;2023-07-29T16:16:49;23.90;1.00
20839;DHT22;10580;51.092;6.828;2023-07-29T16:20:03;23.70;1.00
20839;DHT22;10580;51.092;6.828;2023-07-29T16:22:41;23.60;1.00
20839;DHT22;10580;51.092;6.828;2023-07-29T16:25:28;23.60;1.00
20839;DHT22;10580;51.092;6.828;2023-07-29T16:27:54;23.90;1.00
20839;DHT22;10580;51.092;6.828;2023-07-29T16:30:23;24.00;1.00
20839;DHT22;10580;51.092;6.828;2023-07-29T16:32:49;24.20;1.00
20839;DHT22;10580;51.092;6.828;2023-07-29T16:35:27;24.30;1.00
20839;DHT22;10580;51.092;6.828;2023-07-29T16:38:00;24.60;1.00
20839;DHT22;10580;51.092;6.828;2023-07-29T16:44:02;24.20;1.00
20839;DHT22;10580;51.092;6.828;2023-07-29T16:46:30;23.80;1.00
20839;DHT22;10580;51.092;6.828;2023-07-29T16:49:19;23.60;1.00
20839;DHT22;10580;51.092;6.828;2023-07-29T16:52:11;23.30;1.00
20839;DHT22;10580;51.092;6.828;2023-07-29T16:54:49;23.30;1.00
20839;DHT22;10580;51.092;6.828;2023-07-29T16:57:15;23.40;1.00
20839;DHT22;10580;51.092;6.828;2023-07-29T16:59:41;23.30;1.00
20839;DHT22;10580;51.092;6.828;2023-07-29T17:02:13;23.40;1.00
20839;DHT22;10580;51.092;6.828;2023-07-29T17:05:07;23.50;1.00
20839;DHT22;10580;51.092;6.828;2023-07-29T17:07:35;23.60;1.00
20839;DHT22;10580;51.092;6.828;2023-07-29T17:10:08;23.50;1.00
20839;DHT22;10580;51.092;6.828;2023-07-29T17:12:38;23.20;1.00
20839;DHT22;10580;51.092;6.828;2023-07-29T17:15:16;23.20;68.80
20839;DHT22;10580;51.092;6.828;2023-07-29T17:17:49;23.10;1.00
20839;DHT22;10580;51.092;6.828;2023-07-29T17:20:29;22.90;1.00
20839;DHT22;10580;51.092;6.828;2023-07-29T17:22:57;22.60;1.00
20839;DHT22;10580;51.092;6.828;2023-07-29T17:25:31;22.60;1.00
20839;DHT22;10580;51.092;6.828;2023-07-29T17:28:00;22.60;75.40
20839;DHT22;10580;51.092;6.828;2023-07-29T17:33:53;22.50;99.90
20839;DHT22;10580;51.092;6.828;2023-07-29T17:36:50;22.50;1.00
20839;DHT22;10580;51.092;6.828;2023-07-29T17:39:39;22.30;1.00
20839;DHT22;10580;51.092;6.828;2023-07-29T17:42:28;22.10;1.00
20839;DHT22;10580;51.092;6.828;2023-07-29T17:45:02;21.90;99.90
20839;DHT22;10580;51.092;6.828;2023-07-29T17:50:50;21.60;99.90
20839;DHT22;10580;51.092;6.828;2023-07-29T17:53:29;21.20;1.00
20839;DHT22;10580;51.092;6.828;2023-07-29T17:56:18;21.10;99.90
20839;DHT22;10580;51.092;6.828;2023-07-29T17:59:09;20.80;1.00
20839;DHT22;10580;51.092;6.828;2023-07-29T18:01:38;20.60;99.90
20839;DHT22;10580;51.092;6.828;2023-07-29T18:04:24;20.40;1.00
20839;DHT22;10580;51.092;6.828;2023-07-29T18:06:50;20.30;1.00
20839;DHT22;10580;51.092;6.828;2023-07-29T18:09:18;20.20;1.00
20839;DHT22;10580;51.092;6.828;2023-07-29T18:11:44;20.10;1.00
20839;DHT22;10580;51.092;6.828;2023-07-29T18:14:10;19.90;1.00
20839;DHT22;10580;51.092;6.828;2023-07-29T18:20:18;19.60;1.00
20839;DHT22;10580;51.092;6.828;2023-07-29T18:22:56;19.40;1.00
20839;DHT22;10580;51.092;6.828;2023-07-29T18:29:20;19.20;99.90
20839;DHT22;10580;51.092;6.828;2023-07-29T18:32:02;19.30;99.90
20839;DHT22;10580;51.092;6.828;2023-07-29T18:34:52;19.30;99.90
20839;DHT22;10580;51.092;6.828;2023-07-29T18:37:40;19.20;99.90
20839;DHT22;10580;51.092;6.828;2023-07-29T18:40:12;19.10;99.90
20839;DHT22;10580;51.092;6.828;2023-07-29T19:30:10;18.40;99.90
20839;DHT22;10580;51.092;6.828;2023-07-29T19:32:35;18.50;99.90
20839;DHT22;10580;51.092;6.828;2023-07-29T19:35:01;18.50;99.90
20839;DHT22;10580;51.092;6.828;2023-07-29T19:37:26;18.50;99.90
20839;DHT22;10580;51.092;6.828;2023-07-29T19:39:52;18.50;99.90
20839;DHT22;10580;51.092;6.828;2023-07-29T19:42:18;18.50;99.90
20839;DHT22;10580;51.092;6.828;2023-07-29T19:44:43;18.50;99.90
20839;DHT22;10580;51.092;6.828;2023-07-29T19:47:09;18.50;99.90
20839;DHT22;10580;51.092;6.828;2023-07-29T19:49:35;18.50;99.90
20839;DHT22;10580;51.092;6.828;2023-07-29T19:52:01;18.50;99.90
20839;DHT22;10580;51.092;6.828;2023-07-29T19:54:29;18.50;99.90
20839;DHT22;10580;51.092;6.828;2023-07-29T19:56:55;18.60;99.90
20839;DHT22;10580;51.092;6.828;2023-07-29T19:59:21;18.60;99.90
20839;DHT22;10580;51.092;6.828;2023-07-29T20:01:46;18.60;99.90
20839;DHT22;10580;51.092;6.828;2023-07-29T20:04:12;18.70;99.90
20839;DHT22;10580;51.092;6.828;2023-07-29T20:06:38;18.70;99.90
20839;DHT22;10580;51.092;6.828;2023-07-29T20:09:04;18.70;99.90
20839;DHT22;10580;51.092;6.828;2023-07-29T20:11:29;18.70;99.90
20839;DHT22;10580;51.092;6.828;2023-07-29T20:13:55;18.70;99.90
20839;DHT22;10580;51.092;6.828;2023-07-29T20:16:21;18.70;99.90
20839;DHT22;10580;51.092;6.828;2023-07-29T20:18:49;18.70;99.90
20839;DHT22;10580;51.092;6.828;2023-07-29T20:21:14;18.70;99.90
20839;DHT22;10580;51.092;6.828;2023-07-29T20:23:40;18.60;99.90
20839;DHT22;10580;51.092;6.828;2023-07-29T20:26:05;18.60;99.90
20839;DHT22;10580;51.092;6.828;2023-07-29T20:28:31;18.60;99.90
20839;DHT22;10580;51.092;6.828;2023-07-29T20:30:57;18.60;99.90
20839;DHT22;10580;51.092;6.828;2023-07-29T20:33:24;18.50;99.90
20839;DHT22;10580;51.092;6.828;2023-07-29T20:35:57;18.50;99.90
20839;DHT22;10580;51.092;6.828;2023-07-29T20:38:23;18.40;99.90
20839;DHT22;10580;51.092;6.828;2023-07-29T20:40:53;18.40;99.90
20839;DHT22;10580;51.092;6.828;2023-07-29T20:43:19;18.40;99.90
20839;DHT22;10580;51.092;6.828;2023-07-29T20:45:46;18.30;99.90
20839;DHT22;10580;51.092;6.828;2023-07-29T20:48:11;18.30;99.90
20839;DHT22;10580;51.092;6.828;2023-07-29T20:50:41;18.30;99.90
20839;DHT22;10580;51.092;6.828;2023-07-29T20:53:07;18.30;99.90
20839;DHT22;10580;51.092;6.828;2023-07-29T20:55:32;18.30;99.90
20839;DHT22;10580;51.092;6.828;2023-07-29T20:57:58;18.30;99.90
20839;DHT22;10580;51.092;6.828;2023-07-29T21:00:23;18.30;99.90
20839;DHT22;10580;51.092;6.828;2023-07-29T21:02:49;18.30;99.90
20839;DHT22;10580;51.092;6.828;2023-07-29T21:05:15;18.30;99.90
20839;DHT22;10580;51.092;6.828;2023-07-29T21:07:40;18.30;99.90
20839;DHT22;10580;51.092;6.828;2023-07-29T21:10:06;18.20;99.90
20839;DHT22;10580;51.092;6.828;2023-07-29T21:12:32;18.10;99.90
20839;DHT22;10580;51.092;6.828;2023-07-29T21:14:57;18.10;99.90
20839;DHT22;10580;51.092;6.828;2023-07-29T21:17:23;18.10;99.90
20839;DHT22;10580;51.092;6.828;2023-07-29T21:19:48;18.00;99.90
20839;DHT22;10580;51.092;6.828;2023-07-29T21:22:14;18.00;99.90
20839;DHT22;10580;51.092;6.828;2023-07-29T21:24:42;17.90;99.90
20839;DHT22;10580;51.092;6.828;2023-07-29T21:27:08;17.90;99.90
20839;DHT22;10580;51.092;6.828;2023-07-29T21:29:34;17.90;99.90
20839;DHT22;10580;51.092;6.828;2023-07-29T21:31:59;17.80;99.90
20839;DHT22;10580;51.092;6.828;2023-07-29T21:34:25;17.70;99.90
20839;DHT22;10580;51.092;6.828;2023-07-29T21:36:50;17.70;99.90
20839;DHT22;10580;51.092;6.828;2023-07-29T21:39:16;17.70;99.90
20839;DHT22;10580;51.092;6.828;2023-07-29T21:41:42;17.70;99.90
20839;DHT22;10580;51.092;6.828;2023-07-29T21:44:07;17.70;99.90
20839;DHT22;10580;51.092;6.828;2023-07-29T21:46:33;17.80;99.90
20839;DHT22;10580;51.092;6.828;2023-07-29T21:48:58;17.70;99.90
20839;DHT22;10580;51.092;6.828;2023-07-29T21:51:24;17.70;99.90
20839;DHT22;10580;51.092;6.828;2023-07-29T21:53:52;17.70;99.90
20839;DHT22;10580;51.092;6.828;2023-07-29T21:56:18;17.70;99.90
20839;DHT22;10580;51.092;6.828;2023-07-29T21:58:43;17.70;99.90
20839;DHT22;10580;51.092;6.828;2023-07-29T22:01:09;17.60;99.90
20839;DHT22;10580;51.092;6.828;2023-07-29T22:03:35;17.60;99.90
20839;DHT22;10580;51.092;6.828;2023-07-29T22:06:04;17.60;99.90
20839;DHT22;10580;51.092;6.828;2023-07-29T22:08:30;17.60;99.90
20839;DHT22;10580;51.092;6.828;2023-07-29T22:11:06;17.60;99.90
20839;DHT22;10580;51.092;6.828;2023-07-29T22:13:33;17.50;99.90
20839;DHT22;10580;51.092;6.828;2023-07-29T22:16:01;17.50;99.90
20839;DHT22;10580;51.092;6.828;2023-07-29T22:18:28;17.40;99.90
20839;DHT22;10580;51.092;6.828;2023-07-29T22:20:54;17.40;99.90
20839;DHT22;10580;51.092;6.828;2023-07-29T22:23:20;17.40;99.90
20839;DHT22;10580;51.092;6.828;2023-07-29T22:25:59;17.40;99.90
20839;DHT22;10580;51.092;6.828;2023-07-29T22:28:27;17.30;99.90
20839;DHT22;10580;51.092;6.828;2023-07-29T22:30:53;17.30;99.90
20839;DHT22;10580;51.092;6.828;2023-07-29T22:33:19;17.20;99.90
20839;DHT22;10580;51.092;6.828;2023-07-29T22:35:45;17.20;99.90
20839;DHT22;10580;51.092;6.828;2023-07-29T22:38:11;17.20;99.90
20839;DHT22;10580;51.092;6.828;2023-07-29T22:40:37;17.20;99.90
20839;DHT22;10580;51.092;6.828;2023-07-29T22:43:02;17.20;99.90
20839;DHT22;10580;51.092;6.828;2023-07-29T22:45:28;17.20;99.90
20839;DHT22;10580;51.092;6.828;2023-07-29T22:47:53;17.10;99.90
20839;DHT22;10580;51.092;6.828;2023-07-29T22:50:19;17.10;99.90
20839;DHT22;10580;51.092;6.828;2023-07-29T22:52:44;17.10;99.90
20839;DHT22;10580;51.092;6.828;2023-07-29T22:55:10;17.00;99.90
20839;DHT22;10580;51.092;6.828;2023-07-29T22:57:36;17.00;99.90
20839;DHT22;10580;51.092;6.828;2023-07-29T23:00:02;17.00;99.90
20839;DHT22;10580;51.092;6.828;2023-07-29T23:02:29;16.90;99.90
20839;DHT22;10580;51.092;6.828;2023-07-29T23:04:54;16.90;99.90
20839;DHT22;10580;51.092;6.828;2023-07-29T23:07:20;16.80;99.90
20839;DHT22;10580;51.092;6.828;2023-07-29T23:09:45;16.70;99.90
20839;DHT22;10580;51.092;6.828;2023-07-29T23:12:11;16.80;99.90
20839;DHT22;10580;51.092;6.828;2023-07-29T23:14:36;16.70;99.90
20839;DHT22;10580;51.092;6.828;2023-07-29T23:17:02;16.70;99.90
20839;DHT22;10580;51.092;6.828;2023-07-29T23:19:27;16.70;99.90
20839;DHT22;10580;51.092;6.828;2023-07-29T23:21:53;16.70;99.90
20839;DHT22;10580;51.092;6.828;2023-07-29T23:24:18;16.60;99.90
20839;DHT22;10580;51.092;6.828;2023-07-29T23:26:44;16.60;99.90
20839;DHT22;10580;51.092;6.828;2023-07-29T23:29:10;16.50;99.90
20839;DHT22;10580;51.092;6.828;2023-07-29T23:31:35;16.50;99.90
20839;DHT22;10580;51.092;6.828;2023-07-29T23:34:01;16.40;99.90
20839;DHT22;10580;51.092;6.828;2023-07-29T23:36:26;16.40;99.90
20839;DHT22;10580;51.092;6.828;2023-07-29T23:38:52;16.20;99.90
20839;DHT22;10580;51.092;6.828;2023-07-29T23:41:18;16.20;99.90
20839;DHT22;10580;51.092;6.828;2023-07-29T23:43:43;16.20;99.90